Airfield :
LOGIN :

Register | Disclaimer

   EN    FR    IT 

 










Legend :    VFR   Marginal VFR   IFR   Intensive IFR   Very Intensive IFR
Visi :
Ceiling :
>= 8 km
>= 3000ft
5 to 8 km
1000 to 3000 ft
1500m to 5 km
500 to 1000 ft
800 to 1500m
200 to 500 ft
< 800m
< 200 ft
Symbols :   Thunderstorms  Fog  Heavy snow  Heavy precipitations  Wind > 20 kt
SIGMETs :     Misc.  Thunderstorms  Icing  Turbulence  Mountain Waves  Volcanic Ashes







- Airport Elevation : 458 ft
- Download approach charts


LFSI - St-Dizier

CURRENT METAR :
  • 211130Z AUTO 23009KT 200V270 9999 SCT026 BKN038 OVC047 22/14 Q1014

EXPIRED METARs :
  • 211100Z AUTO 24007G17KT 200V270 9999 BKN023 BKN032 OVC045 22/15 Q1014
  • 211030Z AUTO 23007KT 180V270 9999 4600 BKN021 BKN027 OVC035 21/16 Q1014
  • 211000Z AUTO 21006KT 9000 BKN019 BKN027 BKN033 20/15 Q1014
  • 210930Z AUTO 23007KT 190V260 9999 FEW013 BKN020 BKN028 20/16 Q1014
  • 210900Z AUTO 25009KT 9999 BKN016 OVC025 19/15 Q1014

TAF TAF LFSI
Valid from the 21 at 09:00 until the 22 at 09:00 UTC


210800Z 2109/2209 25008KT 9999 BKN030
TEMPO 2118/2121 36012KT SHRA SCT045TCU
No reported NOTAMs for that airfield.



MET'MAP, your aeronautical weather chart ! - Copyright ORBIFLY December 2007 - Disclaimer

ORBIFLY MET'MAP TEAM :

Programming & Development : Alexandra Zaïnal
Concept & Development : Baudouin d'Aumeries
Co-Development & Prog : Marc-Olivier Méhu
Technical & hardware support : Manuel Goepfert

Contact : metmap@orbifly.com




SOURCES & CREDITS :

   NOAA